sensor_id;sensor_type;location;lat;lon;timestamp;temperature;humidity
35258;DHT22;21385;50.878;8.050;2023-10-31T00:00:44;13.20;99.90
35258;DHT22;21385;50.878;8.050;2023-10-31T00:03:09;13.20;99.90
35258;DHT22;21385;50.878;8.050;2023-10-31T00:05:36;13.10;99.90
35258;DHT22;21385;50.878;8.050;2023-10-31T00:08:01;13.10;99.90
35258;DHT22;21385;50.878;8.050;2023-10-31T00:10:27;13.00;99.90
35258;DHT22;21385;50.878;8.050;2023-10-31T00:12:52;12.80;99.90
35258;DHT22;21385;50.878;8.050;2023-10-31T00:15:18;12.60;99.90
35258;DHT22;21385;50.878;8.050;2023-10-31T00:17:44;12.40;99.90
35258;DHT22;21385;50.878;8.050;2023-10-31T00:20:09;12.30;99.90
35258;DHT22;21385;50.878;8.050;2023-10-31T00:22:35;12.20;99.90
35258;DHT22;21385;50.878;8.050;2023-10-31T00:25:00;12.20;99.90
35258;DHT22;21385;50.878;8.050;2023-10-31T00:27:26;12.20;99.90
35258;DHT22;21385;50.878;8.050;2023-10-31T00:29:51;12.10;99.90
35258;DHT22;21385;50.878;8.050;2023-10-31T00:32:17;12.20;99.90
35258;DHT22;21385;50.878;8.050;2023-10-31T00:34:43;12.10;99.90
35258;DHT22;21385;50.878;8.050;2023-10-31T00:37:08;12.20;99.90
35258;DHT22;21385;50.878;8.050;2023-10-31T00:39:34;12.10;99.90
35258;DHT22;21385;50.878;8.050;2023-10-31T00:41:59;12.10;99.90
35258;DHT22;21385;50.878;8.050;2023-10-31T00:44:25;12.10;99.90
35258;DHT22;21385;50.878;8.050;2023-10-31T00:46:50;12.10;99.90
35258;DHT22;21385;50.878;8.050;2023-10-31T00:49:16;12.00;99.90
35258;DHT22;21385;50.878;8.050;2023-10-31T00:51:42;12.00;99.90
35258;DHT22;21385;50.878;8.050;2023-10-31T00:54:07;11.90;99.90
35258;DHT22;21385;50.878;8.050;2023-10-31T00:56:33;11.90;99.90
35258;DHT22;21385;50.878;8.050;2023-10-31T00:59:00;11.90;99.90
35258;DHT22;21385;50.878;8.050;2023-10-31T01:01:25;11.90;99.90
35258;DHT22;21385;50.878;8.050;2023-10-31T01:03:51;11.90;99.90
35258;DHT22;21385;50.878;8.050;2023-10-31T01:06:16;11.80;99.90
35258;DHT22;21385;50.878;8.050;2023-10-31T01:08:42;11.80;99.90
35258;DHT22;21385;50.878;8.050;2023-10-31T01:11:07;11.90;99.90
35258;DHT22;21385;50.878;8.050;2023-10-31T01:13:33;11.80;99.90
35258;DHT22;21385;50.878;8.050;2023-10-31T01:15:59;11.90;99.90
35258;DHT22;21385;50.878;8.050;2023-10-31T01:18:24;11.90;99.90
35258;DHT22;21385;50.878;8.050;2023-10-31T01:20:50;11.90;99.90
35258;DHT22;21385;50.878;8.050;2023-10-31T01:23:15;11.80;99.90
35258;DHT22;21385;50.878;8.050;2023-10-31T01:25:41;11.90;99.90
35258;DHT22;21385;50.878;8.050;2023-10-31T01:28:07;11.90;99.90
35258;DHT22;21385;50.878;8.050;2023-10-31T01:30:32;11.90;99.90
35258;DHT22;21385;50.878;8.050;2023-10-31T01:32:58;11.90;99.90
35258;DHT22;21385;50.878;8.050;2023-10-31T01:35:23;11.90;99.90
35258;DHT22;21385;50.878;8.050;2023-10-31T01:37:49;11.90;99.90
35258;DHT22;21385;50.878;8.050;2023-10-31T01:40:14;11.90;99.90
35258;DHT22;21385;50.878;8.050;2023-10-31T01:42:40;11.90;99.90
35258;DHT22;21385;50.878;8.050;2023-10-31T01:45:06;12.00;99.90
35258;DHT22;21385;50.878;8.050;2023-10-31T01:47:32;12.00;99.90
35258;DHT22;21385;50.878;8.050;2023-10-31T01:49:58;12.00;99.90
35258;DHT22;21385;50.878;8.050;2023-10-31T01:52:25;11.90;99.90
35258;DHT22;21385;50.878;8.050;2023-10-31T01:54:50;11.80;99.90
35258;DHT22;21385;50.878;8.050;2023-10-31T01:57:18;11.80;99.90
35258;DHT22;21385;50.878;8.050;2023-10-31T01:59:46;11.80;99.90
35258;DHT22;21385;50.878;8.050;2023-10-31T02:02:12;11.70;99.90
35258;DHT22;21385;50.878;8.050;2023-10-31T02:04:37;11.70;99.90
35258;DHT22;21385;50.878;8.050;2023-10-31T02:07:03;11.70;99.90
35258;DHT22;21385;50.878;8.050;2023-10-31T02:09:28;11.70;99.90
35258;DHT22;21385;50.878;8.050;2023-10-31T02:11:55;11.70;99.90
35258;DHT22;21385;50.878;8.050;2023-10-31T02:14:23;11.60;99.90
35258;DHT22;21385;50.878;8.050;2023-10-31T02:16:49;11.50;99.90
35258;DHT22;21385;50.878;8.050;2023-10-31T02:19:18;11.40;99.90
35258;DHT22;21385;50.878;8.050;2023-10-31T02:21:44;11.50;99.90
35258;DHT22;21385;50.878;8.050;2023-10-31T02:24:10;11.40;99.90
35258;DHT22;21385;50.878;8.050;2023-10-31T02:26:35;11.30;99.90
35258;DHT22;21385;50.878;8.050;2023-10-31T02:29:01;11.30;99.90
35258;DHT22;21385;50.878;8.050;2023-10-31T02:31:27;11.30;99.90
35258;DHT22;21385;50.878;8.050;2023-10-31T02:33:53;11.30;99.90
35258;DHT22;21385;50.878;8.050;2023-10-31T02:36:19;11.30;99.90
35258;DHT22;21385;50.878;8.050;2023-10-31T02:38:45;11.30;99.90
35258;DHT22;21385;50.878;8.050;2023-10-31T02:41:11;11.20;99.90
35258;DHT22;21385;50.878;8.050;2023-10-31T02:43:37;11.20;99.90
35258;DHT22;21385;50.878;8.050;2023-10-31T02:46:03;11.20;99.90
35258;DHT22;21385;50.878;8.050;2023-10-31T02:48:29;11.20;99.90
35258;DHT22;21385;50.878;8.050;2023-10-31T02:50:57;11.10;99.90
35258;DHT22;21385;50.878;8.050;2023-10-31T02:53:23;11.10;99.90
35258;DHT22;21385;50.878;8.050;2023-10-31T02:55:48;11.00;99.90
35258;DHT22;21385;50.878;8.050;2023-10-31T02:58:14;11.00;99.90
35258;DHT22;21385;50.878;8.050;2023-10-31T03:00:40;11.00;99.90
35258;DHT22;21385;50.878;8.050;2023-10-31T03:03:05;11.00;99.90
35258;DHT22;21385;50.878;8.050;2023-10-31T03:05:31;11.00;99.90
35258;DHT22;21385;50.878;8.050;2023-10-31T03:07:56;11.00;99.90
35258;DHT22;21385;50.878;8.050;2023-10-31T03:10:22;11.00;99.90
35258;DHT22;21385;50.878;8.050;2023-10-31T03:12:48;10.90;99.90
35258;DHT22;21385;50.878;8.050;2023-10-31T03:15:13;11.00;99.90
35258;DHT22;21385;50.878;8.050;2023-10-31T03:17:39;10.90;99.90
35258;DHT22;21385;50.878;8.050;2023-10-31T03:20:05;10.90;99.90
35258;DHT22;21385;50.878;8.050;2023-10-31T03:22:31;10.90;99.90
35258;DHT22;21385;50.878;8.050;2023-10-31T03:24:56;10.90;99.90
35258;DHT22;21385;50.878;8.050;2023-10-31T03:27:22;10.90;99.90
35258;DHT22;21385;50.878;8.050;2023-10-31T03:29:48;10.90;99.90
35258;DHT22;21385;50.878;8.050;2023-10-31T03:32:14;10.90;99.90
35258;DHT22;21385;50.878;8.050;2023-10-31T03:34:40;10.90;99.90
35258;DHT22;21385;50.878;8.050;2023-10-31T03:37:06;10.90;99.90
35258;DHT22;21385;50.878;8.050;2023-10-31T03:39:32;10.80;99.90
35258;DHT22;21385;50.878;8.050;2023-10-31T03:41:57;10.80;99.90
35258;DHT22;21385;50.878;8.050;2023-10-31T03:44:23;10.80;99.90
35258;DHT22;21385;50.878;8.050;2023-10-31T03:46:48;10.80;99.90
35258;DHT22;21385;50.878;8.050;2023-10-31T03:49:14;10.80;99.90
35258;DHT22;21385;50.878;8.050;2023-10-31T03:51:40;10.70;99.90
35258;DHT22;21385;50.878;8.050;2023-10-31T03:54:05;10.70;99.90
35258;DHT22;21385;50.878;8.050;2023-10-31T03:56:38;10.80;99.90
35258;DHT22;21385;50.878;8.050;2023-10-31T03:59:04;10.80;99.90
35258;DHT22;21385;50.878;8.050;2023-10-31T04:01:29;10.70;99.90
35258;DHT22;21385;50.878;8.050;2023-10-31T04:03:55;10.80;99.90
35258;DHT22;21385;50.878;8.050;2023-10-31T04:06:20;10.80;99.90
35258;DHT22;21385;50.878;8.050;2023-10-31T04:08:47;10.80;99.90
35258;DHT22;21385;50.878;8.050;2023-10-31T04:11:13;10.90;99.90
35258;DHT22;21385;50.878;8.050;2023-10-31T04:13:38;10.90;99.90
35258;DHT22;21385;50.878;8.050;2023-10-31T04:16:04;10.80;99.90
35258;DHT22;21385;50.878;8.050;2023-10-31T04:18:30;10.90;99.90
35258;DHT22;21385;50.878;8.050;2023-10-31T04:20:55;10.90;99.90
35258;DHT22;21385;50.878;8.050;2023-10-31T04:23:21;10.90;99.90
35258;DHT22;21385;50.878;8.050;2023-10-31T04:25:46;10.90;99.90
35258;DHT22;21385;50.878;8.050;2023-10-31T04:28:12;10.80;99.90
35258;DHT22;21385;50.878;8.050;2023-10-31T04:30:40;10.90;99.90
35258;DHT22;21385;50.878;8.050;2023-10-31T04:33:05;10.90;99.90
35258;DHT22;21385;50.878;8.050;2023-10-31T04:35:31;10.90;99.90
35258;DHT22;21385;50.878;8.050;2023-10-31T04:37:56;10.90;99.90
35258;DHT22;21385;50.878;8.050;2023-10-31T04:40:22;10.90;99.90
35258;DHT22;21385;50.878;8.050;2023-10-31T04:42:47;10.80;99.90
35258;DHT22;21385;50.878;8.050;2023-10-31T04:45:13;10.70;99.90
35258;DHT22;21385;50.878;8.050;2023-10-31T04:47:39;10.70;99.90
35258;DHT22;21385;50.878;8.050;2023-10-31T04:50:05;10.60;99.90
35258;DHT22;21385;50.878;8.050;2023-10-31T04:52:31;10.60;99.90
35258;DHT22;21385;50.878;8.050;2023-10-31T04:54:57;10.70;99.90
35258;DHT22;21385;50.878;8.050;2023-10-31T04:57:22;10.70;99.90
35258;DHT22;21385;50.878;8.050;2023-10-31T04:59:48;10.60;99.90
35258;DHT22;21385;50.878;8.050;2023-10-31T05:02:14;10.60;99.90
35258;DHT22;21385;50.878;8.050;2023-10-31T05:04:39;10.60;99.90
35258;DHT22;21385;50.878;8.050;2023-10-31T05:07:06;10.60;99.90
35258;DHT22;21385;50.878;8.050;2023-10-31T05:09:31;10.50;99.90
35258;DHT22;21385;50.878;8.050;2023-10-31T05:11:57;10.60;99.90
35258;DHT22;21385;50.878;8.050;2023-10-31T05:14:22;10.60;99.90
35258;DHT22;21385;50.878;8.050;2023-10-31T05:16:48;10.60;99.90
35258;DHT22;21385;50.878;8.050;2023-10-31T05:19:14;10.70;99.90
35258;DHT22;21385;50.878;8.050;2023-10-31T05:21:39;10.70;99.90
35258;DHT22;21385;50.878;8.050;2023-10-31T05:24:05;10.60;99.90
35258;DHT22;21385;50.878;8.050;2023-10-31T05:26:31;10.60;99.90
35258;DHT22;21385;50.878;8.050;2023-10-31T05:28:57;10.60;99.90
35258;DHT22;21385;50.878;8.050;2023-10-31T05:31:24;10.60;99.90
35258;DHT22;21385;50.878;8.050;2023-10-31T05:33:50;10.50;99.90
35258;DHT22;21385;50.878;8.050;2023-10-31T05:36:22;10.50;99.90
35258;DHT22;21385;50.878;8.050;2023-10-31T05:38:47;10.50;99.90
35258;DHT22;21385;50.878;8.050;2023-10-31T05:41:14;10.50;99.90
35258;DHT22;21385;50.878;8.050;2023-10-31T05:43:40;10.50;99.90
35258;DHT22;21385;50.878;8.050;2023-10-31T05:46:05;10.50;99.90
35258;DHT22;21385;50.878;8.050;2023-10-31T05:48:32;10.50;99.90
35258;DHT22;21385;50.878;8.050;2023-10-31T05:50:57;10.50;99.90
35258;DHT22;21385;50.878;8.050;2023-10-31T05:53:23;10.50;99.90
35258;DHT22;21385;50.878;8.050;2023-10-31T05:55:49;10.40;99.90
35258;DHT22;21385;50.878;8.050;2023-10-31T05:58:14;10.40;99.90
35258;DHT22;21385;50.878;8.050;2023-10-31T06:00:40;10.40;99.90
35258;DHT22;21385;50.878;8.050;2023-10-31T06:03:05;10.40;99.90
35258;DHT22;21385;50.878;8.050;2023-10-31T06:05:31;10.40;99.90
35258;DHT22;21385;50.878;8.050;2023-10-31T06:07:57;10.40;99.90
35258;DHT22;21385;50.878;8.050;2023-10-31T06:10:22;10.30;99.90
35258;DHT22;21385;50.878;8.050;2023-10-31T06:12:48;10.30;99.90
35258;DHT22;21385;50.878;8.050;2023-10-31T06:15:13;10.30;99.90
35258;DHT22;21385;50.878;8.050;2023-10-31T06:17:39;10.30;99.90
35258;DHT22;21385;50.878;8.050;2023-10-31T06:20:07;10.30;99.90
35258;DHT22;21385;50.878;8.050;2023-10-31T06:22:33;10.30;99.90
35258;DHT22;21385;50.878;8.050;2023-10-31T06:24:59;10.20;99.90
35258;DHT22;21385;50.878;8.050;2023-10-31T06:27:24;10.20;99.90
35258;DHT22;21385;50.878;8.050;2023-10-31T06:29:50;10.20;99.90
35258;DHT22;21385;50.878;8.050;2023-10-31T06:32:15;10.30;99.90
35258;DHT22;21385;50.878;8.050;2023-10-31T06:34:41;10.30;99.90
35258;DHT22;21385;50.878;8.050;2023-10-31T06:37:06;10.30;99.90
35258;DHT22;21385;50.878;8.050;2023-10-31T06:39:32;10.40;99.90
35258;DHT22;21385;50.878;8.050;2023-10-31T06:41:58;10.40;99.90
35258;DHT22;21385;50.878;8.050;2023-10-31T06:44:23;10.40;99.90
35258;DHT22;21385;50.878;8.050;2023-10-31T06:46:49;10.40;99.90
35258;DHT22;21385;50.878;8.050;2023-10-31T06:49:15;10.40;99.90
35258;DHT22;21385;50.878;8.050;2023-10-31T06:51:41;10.40;99.90
35258;DHT22;21385;50.878;8.050;2023-10-31T06:54:06;10.50;99.90
35258;DHT22;21385;50.878;8.050;2023-10-31T06:56:32;10.40;99.90
35258;DHT22;21385;50.878;8.050;2023-10-31T06:58:58;10.40;99.90
35258;DHT22;21385;50.878;8.050;2023-10-31T07:01:24;10.40;99.90
35258;DHT22;21385;50.878;8.050;2023-10-31T07:03:50;10.40;99.90
35258;DHT22;21385;50.878;8.050;2023-10-31T07:06:15;10.40;99.90
35258;DHT22;21385;50.878;8.050;2023-10-31T07:08:41;10.50;99.90
35258;DHT22;21385;50.878;8.050;2023-10-31T07:11:06;10.50;99.90
35258;DHT22;21385;50.878;8.050;2023-10-31T07:13:32;10.40;99.90
35258;DHT22;21385;50.878;8.050;2023-10-31T07:15:58;10.40;99.90
35258;DHT22;21385;50.878;8.050;2023-10-31T07:18:23;10.40;99.90
35258;DHT22;21385;50.878;8.050;2023-10-31T07:20:49;10.40;99.90
35258;DHT22;21385;50.878;8.050;2023-10-31T07:23:14;10.40;99.90
35258;DHT22;21385;50.878;8.050;2023-10-31T07:25:40;10.50;99.90
35258;DHT22;21385;50.878;8.050;2023-10-31T07:28:06;10.50;99.90
35258;DHT22;21385;50.878;8.050;2023-10-31T07:30:32;10.50;99.90
35258;DHT22;21385;50.878;8.050;2023-10-31T07:32:57;10.50;99.90
35258;DHT22;21385;50.878;8.050;2023-10-31T07:35:23;10.50;99.90
35258;DHT22;21385;50.878;8.050;2023-10-31T07:37:48;10.50;99.90
35258;DHT22;21385;50.878;8.050;2023-10-31T07:40:14;10.50;99.90
35258;DHT22;21385;50.878;8.050;2023-10-31T07:42:39;10.50;99.90
35258;DHT22;21385;50.878;8.050;2023-10-31T07:45:05;10.50;99.90
35258;DHT22;21385;50.878;8.050;2023-10-31T07:47:31;10.50;99.90
35258;DHT22;21385;50.878;8.050;2023-10-31T07:49:57;10.50;99.90
35258;DHT22;21385;50.878;8.050;2023-10-31T07:52:22;10.50;99.90
35258;DHT22;21385;50.878;8.050;2023-10-31T07:54:48;10.40;99.90
35258;DHT22;21385;50.878;8.050;2023-10-31T07:57:13;10.50;99.90
35258;DHT22;21385;50.878;8.050;2023-10-31T07:59:39;10.40;99.90
35258;DHT22;21385;50.878;8.050;2023-10-31T08:02:05;10.30;99.90
35258;DHT22;21385;50.878;8.050;2023-10-31T08:04:31;10.40;99.90
35258;DHT22;21385;50.878;8.050;2023-10-31T08:06:56;10.30;99.90
35258;DHT22;21385;50.878;8.050;2023-10-31T08:09:22;10.30;99.90
35258;DHT22;21385;50.878;8.050;2023-10-31T08:11:48;10.40;99.90
35258;DHT22;21385;50.878;8.050;2023-10-31T08:14:13;10.40;99.90
35258;DHT22;21385;50.878;8.050;2023-10-31T08:16:41;10.30;99.90
35258;DHT22;21385;50.878;8.050;2023-10-31T08:19:07;10.30;99.90
35258;DHT22;21385;50.878;8.050;2023-10-31T08:21:32;10.30;99.90
35258;DHT22;21385;50.878;8.050;2023-10-31T08:24:03;10.30;99.90
35258;DHT22;21385;50.878;8.050;2023-10-31T08:26:30;10.40;99.90
35258;DHT22;21385;50.878;8.050;2023-10-31T08:28:56;10.40;99.90
35258;DHT22;21385;50.878;8.050;2023-10-31T08:31:22;10.40;99.90
35258;DHT22;21385;50.878;8.050;2023-10-31T08:33:47;10.40;99.90
35258;DHT22;21385;50.878;8.050;2023-10-31T08:36:13;10.50;99.90
35258;DHT22;21385;50.878;8.050;2023-10-31T08:38:38;10.50;99.90
35258;DHT22;21385;50.878;8.050;2023-10-31T08:41:04;10.40;99.90
35258;DHT22;21385;50.878;8.050;2023-10-31T08:43:29;10.40;99.90
35258;DHT22;21385;50.878;8.050;2023-10-31T08:45:55;10.40;99.90
35258;DHT22;21385;50.878;8.050;2023-10-31T08:48:21;10.30;99.90
35258;DHT22;21385;50.878;8.050;2023-10-31T08:50:46;10.30;99.90
35258;DHT22;21385;50.878;8.050;2023-10-31T08:53:12;10.30;99.90
35258;DHT22;21385;50.878;8.050;2023-10-31T08:55:38;10.30;99.90
35258;DHT22;21385;50.878;8.050;2023-10-31T08:58:03;10.40;99.90
35258;DHT22;21385;50.878;8.050;2023-10-31T09:00:29;10.40;99.90
35258;DHT22;21385;50.878;8.050;2023-10-31T09:02:54;10.50;99.90
35258;DHT22;21385;50.878;8.050;2023-10-31T09:05:20;10.50;99.90
35258;DHT22;21385;50.878;8.050;2023-10-31T09:07:46;10.40;99.90
35258;DHT22;21385;50.878;8.050;2023-10-31T09:10:14;10.50;99.90
35258;DHT22;21385;50.878;8.050;2023-10-31T09:12:40;10.50;99.90
35258;DHT22;21385;50.878;8.050;2023-10-31T09:15:06;10.50;99.90
35258;DHT22;21385;50.878;8.050;2023-10-31T09:17:32;10.50;99.90
35258;DHT22;21385;50.878;8.050;2023-10-31T09:19:57;10.40;99.90
35258;DHT22;21385;50.878;8.050;2023-10-31T09:22:24;10.30;99.90
35258;DHT22;21385;50.878;8.050;2023-10-31T09:24:50;10.30;99.90
35258;DHT22;21385;50.878;8.050;2023-10-31T09:27:15;10.30;99.90
35258;DHT22;21385;50.878;8.050;2023-10-31T09:29:41;10.30;99.90
35258;DHT22;21385;50.878;8.050;2023-10-31T09:32:06;10.30;99.90
35258;DHT22;21385;50.878;8.050;2023-10-31T09:34:32;10.40;99.90
35258;DHT22;21385;50.878;8.050;2023-10-31T09:36:58;10.40;99.90
35258;DHT22;21385;50.878;8.050;2023-10-31T09:39:24;10.40;99.90
35258;DHT22;21385;50.878;8.050;2023-10-31T09:41:49;10.40;99.90
35258;DHT22;21385;50.878;8.050;2023-10-31T09:44:15;10.50;99.90
35258;DHT22;21385;50.878;8.050;2023-10-31T09:46:41;10.40;99.90
35258;DHT22;21385;50.878;8.050;2023-10-31T09:49:07;10.50;99.90
35258;DHT22;21385;50.878;8.050;2023-10-31T09:51:34;10.50;99.90
35258;DHT22;21385;50.878;8.050;2023-10-31T09:54:01;10.50;99.90
35258;DHT22;21385;50.878;8.050;2023-10-31T09:56:29;10.50;99.90
35258;DHT22;21385;50.878;8.050;2023-10-31T09:59:03;10.50;99.90
35258;DHT22;21385;50.878;8.050;2023-10-31T10:01:29;10.50;99.90
35258;DHT22;21385;50.878;8.050;2023-10-31T10:03:55;10.50;99.90
35258;DHT22;21385;50.878;8.050;2023-10-31T10:06:21;10.50;99.90
35258;DHT22;21385;50.878;8.050;2023-10-31T10:08:49;10.60;99.90
35258;DHT22;21385;50.878;8.050;2023-10-31T10:11:15;10.60;99.90
35258;DHT22;21385;50.878;8.050;2023-10-31T10:13:40;10.70;99.90
35258;DHT22;21385;50.878;8.050;2023-10-31T10:16:06;10.80;99.90
35258;DHT22;21385;50.878;8.050;2023-10-31T10:18:34;10.90;99.90
35258;DHT22;21385;50.878;8.050;2023-10-31T10:21:02;11.00;99.90
35258;DHT22;21385;50.878;8.050;2023-10-31T10:23:29;11.00;99.90
35258;DHT22;21385;50.878;8.050;2023-10-31T10:25:56;11.10;99.90
35258;DHT22;21385;50.878;8.050;2023-10-31T10:28:22;11.10;99.90
35258;DHT22;21385;50.878;8.050;2023-10-31T10:30:51;11.10;99.90
35258;DHT22;21385;50.878;8.050;2023-10-31T10:33:18;11.10;99.90
35258;DHT22;21385;50.878;8.050;2023-10-31T10:35:44;11.10;99.90
35258;DHT22;21385;50.878;8.050;2023-10-31T10:38:13;11.00;99.90
35258;DHT22;21385;50.878;8.050;2023-10-31T10:40:44;11.10;99.90
35258;DHT22;21385;50.878;8.050;2023-10-31T10:43:23;11.10;99.90
35258;DHT22;21385;50.878;8.050;2023-10-31T10:45:56;11.20;99.90
35258;DHT22;21385;50.878;8.050;2023-10-31T10:48:24;11.20;99.90
35258;DHT22;21385;50.878;8.050;2023-10-31T10:51:15;11.30;99.90
35258;DHT22;21385;50.878;8.050;2023-10-31T10:53:48;11.30;99.90
35258;DHT22;21385;50.878;8.050;2023-10-31T10:56:21;11.20;99.90
35258;DHT22;21385;50.878;8.050;2023-10-31T10:59:07;11.30;99.90
35258;DHT22;21385;50.878;8.050;2023-10-31T11:01:35;11.50;99.90
35258;DHT22;21385;50.878;8.050;2023-10-31T11:04:01;11.40;99.90
35258;DHT22;21385;50.878;8.050;2023-10-31T11:06:29;11.50;99.90
35258;DHT22;21385;50.878;8.050;2023-10-31T11:08:55;11.50;99.90
35258;DHT22;21385;50.878;8.050;2023-10-31T11:11:22;11.60;99.90
35258;DHT22;21385;50.878;8.050;2023-10-31T11:13:50;11.80;99.90
35258;DHT22;21385;50.878;8.050;2023-10-31T11:16:39;11.80;99.90
35258;DHT22;21385;50.878;8.050;2023-10-31T11:19:07;11.90;99.90
35258;DHT22;21385;50.878;8.050;2023-10-31T11:21:34;11.90;99.90
35258;DHT22;21385;50.878;8.050;2023-10-31T11:24:00;12.00;99.90
35258;DHT22;21385;50.878;8.050;2023-10-31T11:26:27;12.10;99.90
35258;DHT22;21385;50.878;8.050;2023-10-31T11:29:06;12.20;99.90
35258;DHT22;21385;50.878;8.050;2023-10-31T11:31:32;12.30;99.90
35258;DHT22;21385;50.878;8.050;2023-10-31T11:34:01;12.30;99.90
35258;DHT22;21385;50.878;8.050;2023-10-31T11:36:26;12.40;99.90
35258;DHT22;21385;50.878;8.050;2023-10-31T11:39:20;12.70;99.90
35258;DHT22;21385;50.878;8.050;2023-10-31T11:41:54;13.00;99.90
35258;DHT22;21385;50.878;8.050;2023-10-31T11:44:25;13.20;99.90
35258;DHT22;21385;50.878;8.050;2023-10-31T11:46:51;13.30;99.90
35258;DHT22;21385;50.878;8.050;2023-10-31T11:50:03;13.50;99.90
35258;DHT22;21385;50.878;8.050;2023-10-31T11:52:14;13.60;99.90
35258;DHT22;21385;50.878;8.050;2023-10-31T11:54:40;13.70;99.90
35258;DHT22;21385;50.878;8.050;2023-10-31T11:57:06;13.80;99.90
35258;DHT22;21385;50.878;8.050;2023-10-31T11:59:38;13.70;99.90
35258;DHT22;21385;50.878;8.050;2023-10-31T12:02:16;13.40;99.90
35258;DHT22;21385;50.878;8.050;2023-10-31T12:04:43;13.30;99.90
35258;DHT22;21385;50.878;8.050;2023-10-31T12:07:10;13.10;99.90
35258;DHT22;21385;50.878;8.050;2023-10-31T12:09:48;13.10;99.90
35258;DHT22;21385;50.878;8.050;2023-10-31T12:12:14;13.00;99.90
35258;DHT22;21385;50.878;8.050;2023-10-31T12:14:40;13.00;99.90
35258;DHT22;21385;50.878;8.050;2023-10-31T12:17:06;13.20;99.90
35258;DHT22;21385;50.878;8.050;2023-10-31T12:19:33;13.50;99.90
35258;DHT22;21385;50.878;8.050;2023-10-31T12:21:58;13.70;99.90
35258;DHT22;21385;50.878;8.050;2023-10-31T12:24:24;13.80;99.90
35258;DHT22;21385;50.878;8.050;2023-10-31T12:26:49;13.90;99.90
35258;DHT22;21385;50.878;8.050;2023-10-31T12:29:18;13.80;99.90
35258;DHT22;21385;50.878;8.050;2023-10-31T12:31:51;13.80;99.90
35258;DHT22;21385;50.878;8.050;2023-10-31T12:34:21;13.70;99.90
35258;DHT22;21385;50.878;8.050;2023-10-31T12:36:49;13.60;99.90
35258;DHT22;21385;50.878;8.050;2023-10-31T12:39:16;13.40;99.90
35258;DHT22;21385;50.878;8.050;2023-10-31T12:41:42;13.50;99.90
35258;DHT22;21385;50.878;8.050;2023-10-31T12:44:09;13.50;99.90
35258;DHT22;21385;50.878;8.050;2023-10-31T12:46:41;13.50;99.90
35258;DHT22;21385;50.878;8.050;2023-10-31T12:49:33;13.40;99.90
35258;DHT22;21385;50.878;8.050;2023-10-31T12:51:59;13.50;99.90
35258;DHT22;21385;50.878;8.050;2023-10-31T12:54:33;13.50;99.90
35258;DHT22;21385;50.878;8.050;2023-10-31T12:57:06;13.40;99.90
35258;DHT22;21385;50.878;8.050;2023-10-31T12:59:33;13.50;99.90
35258;DHT22;21385;50.878;8.050;2023-10-31T13:01:59;13.50;99.90
35258;DHT22;21385;50.878;8.050;2023-10-31T13:04:32;13.50;99.90
35258;DHT22;21385;50.878;8.050;2023-10-31T13:07:04;13.50;99.90
35258;DHT22;21385;50.878;8.050;2023-10-31T13:09:31;13.50;99.90
35258;DHT22;21385;50.878;8.050;2023-10-31T13:12:02;13.50;99.90
35258;DHT22;21385;50.878;8.050;2023-10-31T13:14:28;13.40;99.90
35258;DHT22;21385;50.878;8.050;2023-10-31T13:16:54;13.50;99.90
35258;DHT22;21385;50.878;8.050;2023-10-31T13:19:19;13.50;99.90
35258;DHT22;21385;50.878;8.050;2023-10-31T13:21:47;13.50;99.90
35258;DHT22;21385;50.878;8.050;2023-10-31T13:24:13;13.50;99.90
35258;DHT22;21385;50.878;8.050;2023-10-31T13:26:38;13.70;99.90
35258;DHT22;21385;50.878;8.050;2023-10-31T13:29:04;13.80;99.90
35258;DHT22;21385;50.878;8.050;2023-10-31T13:31:30;13.90;99.90
35258;DHT22;21385;50.878;8.050;2023-10-31T13:33:55;14.10;99.90
35258;DHT22;21385;50.878;8.050;2023-10-31T13:36:21;14.30;99.90
35258;DHT22;21385;50.878;8.050;2023-10-31T13:38:47;14.80;99.90
35258;DHT22;21385;50.878;8.050;2023-10-31T13:41:14;15.30;99.90
35258;DHT22;21385;50.878;8.050;2023-10-31T13:43:39;15.40;99.90
35258;DHT22;21385;50.878;8.050;2023-10-31T13:46:05;15.20;99.90
35258;DHT22;21385;50.878;8.050;2023-10-31T13:48:31;15.00;99.90
35258;DHT22;21385;50.878;8.050;2023-10-31T13:50:57;14.80;99.90
35258;DHT22;21385;50.878;8.050;2023-10-31T13:53:22;14.60;99.90
35258;DHT22;21385;50.878;8.050;2023-10-31T13:55:48;14.40;99.90
35258;DHT22;21385;50.878;8.050;2023-10-31T13:58:14;14.30;99.90
35258;DHT22;21385;50.878;8.050;2023-10-31T14:00:40;14.40;99.90
35258;DHT22;21385;50.878;8.050;2023-10-31T14:03:05;14.80;99.90
35258;DHT22;21385;50.878;8.050;2023-10-31T14:05:31;15.20;99.90
35258;DHT22;21385;50.878;8.050;2023-10-31T14:07:57;15.40;99.90
35258;DHT22;21385;50.878;8.050;2023-10-31T14:10:23;15.40;99.90
35258;DHT22;21385;50.878;8.050;2023-10-31T14:12:49;15.20;99.90
35258;DHT22;21385;50.878;8.050;2023-10-31T14:15:15;14.80;99.90
35258;DHT22;21385;50.878;8.050;2023-10-31T14:17:41;14.60;99.90
35258;DHT22;21385;50.878;8.050;2023-10-31T14:20:07;14.50;99.90
35258;DHT22;21385;50.878;8.050;2023-10-31T14:22:33;14.50;99.90
35258;DHT22;21385;50.878;8.050;2023-10-31T14:24:58;14.40;99.90
35258;DHT22;21385;50.878;8.050;2023-10-31T14:27:24;14.30;99.90
35258;DHT22;21385;50.878;8.050;2023-10-31T14:29:50;14.20;99.90
35258;DHT22;21385;50.878;8.050;2023-10-31T14:32:17;14.10;99.90
35258;DHT22;21385;50.878;8.050;2023-10-31T14:34:43;13.90;99.90
35258;DHT22;21385;50.878;8.050;2023-10-31T14:37:09;13.80;99.90
35258;DHT22;21385;50.878;8.050;2023-10-31T14:39:34;13.70;99.90
35258;DHT22;21385;50.878;8.050;2023-10-31T14:42:00;13.70;99.90
35258;DHT22;21385;50.878;8.050;2023-10-31T14:44:26;13.60;99.90
35258;DHT22;21385;50.878;8.050;2023-10-31T14:46:51;13.60;99.90
35258;DHT22;21385;50.878;8.050;2023-10-31T14:49:18;13.50;99.90
35258;DHT22;21385;50.878;8.050;2023-10-31T14:51:44;13.50;99.90
35258;DHT22;21385;50.878;8.050;2023-10-31T14:54:10;13.40;99.90
35258;DHT22;21385;50.878;8.050;2023-10-31T14:56:35;13.40;99.90
35258;DHT22;21385;50.878;8.050;2023-10-31T14:59:03;13.30;99.90
35258;DHT22;21385;50.878;8.050;2023-10-31T15:01:28;13.30;99.90
35258;DHT22;21385;50.878;8.050;2023-10-31T15:03:54;13.30;99.90
35258;DHT22;21385;50.878;8.050;2023-10-31T15:06:23;13.30;99.90
35258;DHT22;21385;50.878;8.050;2023-10-31T15:08:48;13.30;99.90
35258;DHT22;21385;50.878;8.050;2023-10-31T15:11:15;13.30;99.90
35258;DHT22;21385;50.878;8.050;2023-10-31T15:13:42;13.50;99.90
35258;DHT22;21385;50.878;8.050;2023-10-31T15:16:08;14.00;99.90
35258;DHT22;21385;50.878;8.050;2023-10-31T15:18:33;14.30;99.90
35258;DHT22;21385;50.878;8.050;2023-10-31T15:20:59;14.40;99.90
35258;DHT22;21385;50.878;8.050;2023-10-31T15:23:25;14.40;99.90
35258;DHT22;21385;50.878;8.050;2023-10-31T15:25:52;14.20;99.90